createdAt,value
2018-12-17T00:00:29.255Z,45.95
2018-12-17T00:02:56.726Z,42.38
2018-12-17T00:05:24.207Z,49.80
2018-12-17T00:07:52.542Z,45.60
2018-12-17T00:10:20.007Z,54.00
2018-12-17T00:12:47.425Z,40.25
2018-12-17T00:15:14.874Z,41.90
2018-12-17T00:17:42.298Z,40.92
2018-12-17T00:20:10.273Z,49.20
2018-12-17T00:22:37.694Z,40.10
2018-12-17T00:25:05.770Z,43.30
2018-12-17T00:27:33.237Z,44.88
2018-12-17T00:30:00.675Z,45.03
2018-12-17T00:32:28.098Z,42.30
2018-12-17T00:34:55.547Z,41.23
2018-12-17T00:37:23.006Z,40.12
2018-12-17T00:39:50.449Z,39.95
2018-12-17T00:42:17.887Z,39.88
2018-12-17T00:44:45.311Z,41.18
2018-12-17T00:47:12.795Z,45.50
2018-12-17T00:49:40.234Z,41.95
2018-12-17T00:52:07.705Z,42.58
2018-12-17T00:54:35.132Z,40.45
2018-12-17T00:57:02.605Z,38.35
2018-12-17T00:59:30.050Z,34.98
2018-12-17T01:01:57.714Z,31.02
2018-12-17T01:04:25.162Z,37.13
2018-12-17T01:06:52.614Z,38.63
2018-12-17T01:09:20.082Z,37.73
2018-12-17T01:11:47.538Z,38.85
2018-12-17T01:14:14.962Z,38.28
2018-12-17T01:16:42.450Z,39.13
2018-12-17T01:19:09.893Z,38.73
2018-12-17T01:21:37.326Z,45.85
2018-12-17T01:24:04.790Z,40.58
2018-12-17T01:26:32.240Z,46.23
2018-12-17T01:28:59.699Z,35.45
2018-12-17T01:31:27.178Z,38.90
2018-12-17T01:33:54.618Z,36.53
2018-12-17T01:36:22.073Z,35.63
2018-12-17T01:38:49.502Z,37.73
2018-12-17T01:41:17.033Z,38.05
2018-12-17T01:43:44.459Z,36.42
2018-12-17T01:46:12.206Z,31.12
2018-12-17T01:48:39.625Z,39.70
2018-12-17T01:51:07.091Z,32.58
2018-12-17T01:53:34.597Z,33.90
2018-12-17T01:56:02.073Z,32.83
2018-12-17T01:58:29.537Z,34.05
2018-12-17T02:00:57.021Z,32.88
2018-12-17T02:03:24.445Z,38.05
2018-12-17T02:05:51.875Z,33.50
2018-12-17T02:08:19.328Z,33.33
2018-12-17T02:10:46.798Z,31.37
2018-12-17T02:13:14.242Z,36.77
2018-12-17T02:15:41.667Z,37.48
2018-12-17T02:18:09.099Z,40.70
2018-12-17T02:20:36.514Z,38.70
2018-12-17T02:23:03.987Z,39.83
2018-12-17T02:25:31.417Z,36.17
2018-12-17T02:27:58.866Z,37.60
2018-12-17T02:30:26.311Z,41.05
2018-12-17T02:32:53.769Z,33.38
2018-12-17T02:35:21.226Z,34.78
2018-12-17T02:37:48.658Z,40.12
2018-12-17T02:40:16.081Z,39.50
2018-12-17T02:42:43.543Z,34.35
2018-12-17T02:45:11.019Z,35.08
2018-12-17T02:47:38.501Z,35.17
2018-12-17T02:50:05.954Z,40.50
2018-12-17T02:52:33.391Z,32.80
2018-12-17T02:55:00.864Z,37.58
2018-12-17T02:57:28.514Z,34.43
2018-12-17T02:59:55.939Z,33.28
2018-12-17T03:02:23.393Z,31.60
2018-12-17T03:04:50.914Z,37.75
2018-12-17T03:07:18.346Z,32.70
2018-12-17T03:09:45.789Z,32.33
2018-12-17T03:12:14.009Z,29.65
2018-12-17T03:14:41.555Z,33.33
2018-12-17T03:17:09.070Z,31.50
2018-12-17T03:19:36.521Z,32.15
2018-12-17T03:22:03.986Z,38.42
2018-12-17T03:24:31.414Z,39.65
2018-12-17T03:26:59.419Z,39.27
2018-12-17T03:29:26.867Z,41.60
2018-12-17T03:31:54.524Z,40.60
2018-12-17T03:34:22.055Z,44.00
2018-12-17T03:36:49.486Z,44.03
2018-12-17T03:39:16.905Z,50.83
2018-12-17T03:41:44.367Z,42.27
2018-12-17T03:44:11.896Z,44.80
2018-12-17T03:46:39.329Z,40.95
2018-12-17T03:49:06.860Z,51.15
2018-12-17T03:51:34.422Z,53.78
2018-12-17T03:54:01.848Z,38.70
2018-12-17T03:56:29.365Z,46.83
2018-12-17T03:58:59.459Z,47.15
2018-12-17T04:01:26.306Z,38.67
2018-12-17T04:03:53.815Z,41.95
2018-12-17T04:06:21.245Z,49.60
2018-12-17T04:08:48.799Z,49.98
2018-12-17T04:11:16.225Z,50.65
2018-12-17T04:13:43.674Z,50.52
2018-12-17T04:16:11.114Z,53.42
2018-12-17T04:18:38.571Z,52.15
2018-12-17T04:21:05.993Z,50.80
2018-12-17T04:23:33.422Z,56.65
2018-12-17T04:26:00.870Z,45.70
2018-12-17T04:28:28.316Z,65.92
2018-12-17T04:30:55.731Z,49.05
2018-12-17T04:33:23.170Z,52.73
2018-12-17T04:35:50.598Z,63.75
2018-12-17T04:38:18.035Z,54.83
2018-12-17T04:40:45.553Z,54.75
2018-12-17T04:43:12.989Z,44.05
2018-12-17T04:45:40.415Z,50.28
2018-12-17T04:48:07.879Z,47.62
2018-12-17T04:50:35.295Z,46.53
2018-12-17T04:53:02.726Z,43.90
2018-12-17T04:55:30.155Z,50.95
2018-12-17T04:57:57.591Z,46.77
2018-12-17T05:00:25.038Z,52.62
2018-12-17T05:02:52.499Z,46.50
2018-12-17T05:05:20.042Z,50.43
2018-12-17T05:07:47.562Z,48.78
2018-12-17T05:10:15.001Z,50.70
2018-12-17T05:12:42.501Z,48.85
2018-12-17T05:15:09.962Z,47.75
2018-12-17T05:17:37.379Z,60.00
2018-12-17T05:20:05.163Z,52.20
2018-12-17T05:22:32.587Z,53.02
2018-12-17T05:25:00.039Z,49.35
2018-12-17T05:27:28.360Z,50.03
2018-12-17T05:29:56.517Z,51.08
2018-12-17T05:32:24.010Z,53.55
2018-12-17T05:34:51.466Z,50.70
2018-12-17T05:37:18.895Z,55.58
2018-12-17T05:39:46.546Z,51.55
2018-12-17T05:42:13.998Z,55.20
2018-12-17T05:44:41.434Z,46.98
2018-12-17T05:47:08.858Z,49.70
2018-12-17T05:49:36.316Z,60.33
2018-12-17T05:52:03.782Z,52.45
2018-12-17T05:54:32.001Z,50.48
2018-12-17T05:56:59.854Z,47.30
2018-12-17T05:59:28.701Z,44.75
2018-12-17T06:01:56.301Z,44.27
2018-12-17T06:04:23.861Z,47.03
2018-12-17T06:06:51.286Z,45.48
2018-12-17T06:09:18.941Z,42.98
2018-12-17T06:11:46.399Z,42.53
2018-12-17T06:14:13.832Z,46.33
2018-12-17T06:16:41.323Z,43.52
2018-12-17T06:19:08.778Z,39.08
2018-12-17T06:21:36.232Z,36.80
2018-12-17T06:24:03.903Z,42.85
2018-12-17T06:26:31.465Z,43.30
2018-12-17T06:28:58.989Z,36.30
2018-12-17T06:31:26.449Z,40.95
2018-12-17T06:33:53.890Z,38.98
2018-12-17T06:36:21.370Z,42.83
2018-12-17T06:38:48.794Z,35.95
2018-12-17T06:41:16.231Z,43.10
2018-12-17T06:43:43.654Z,39.80
2018-12-17T06:46:11.116Z,42.95
2018-12-17T06:48:39.129Z,41.85
2018-12-17T06:51:06.558Z,43.17
2018-12-17T06:53:33.986Z,44.35
2018-12-17T06:56:01.414Z,41.35
2018-12-17T06:58:29.266Z,40.45
2018-12-17T07:00:56.734Z,43.78
2018-12-17T07:03:24.166Z,41.10
2018-12-17T07:05:51.618Z,33.48
2018-12-17T07:08:19.051Z,34.43
2018-12-17T07:10:46.859Z,32.33
2018-12-17T07:13:14.277Z,36.42
2018-12-17T07:15:41.743Z,35.88
2018-12-17T07:18:09.204Z,32.00
2018-12-17T07:20:37.052Z,34.88
2018-12-17T07:23:04.530Z,30.30
2018-12-17T07:25:31.988Z,36.55
2018-12-17T07:27:59.418Z,38.08
2018-12-17T07:30:26.866Z,32.85
2018-12-17T07:32:54.419Z,42.00
2018-12-17T07:35:21.890Z,42.40
2018-12-17T07:37:49.331Z,36.98
2018-12-17T07:40:16.838Z,36.68
2018-12-17T07:42:44.333Z,34.90
2018-12-17T07:45:11.767Z,37.90
2018-12-17T07:47:39.190Z,41.45
2018-12-17T07:50:06.958Z,33.40
2018-12-17T07:52:34.386Z,34.40
2018-12-17T07:55:01.815Z,33.73
2018-12-17T07:57:29.331Z,33.40
2018-12-17T07:59:56.993Z,38.30
2018-12-17T08:02:24.698Z,28.00
2018-12-17T08:04:52.122Z,27.60
2018-12-17T08:07:19.550Z,33.42
2018-12-17T08:09:46.980Z,29.72
2018-12-17T08:12:14.426Z,28.40
2018-12-17T08:14:41.855Z,36.05
2018-12-17T08:17:09.534Z,30.02
2018-12-17T08:19:36.988Z,26.33
2018-12-17T08:22:04.514Z,28.62
2018-12-17T08:24:31.999Z,31.48
2018-12-17T08:27:00.213Z,27.98
2018-12-17T08:29:27.666Z,30.82
2018-12-17T08:31:55.114Z,28.00
2018-12-17T08:34:22.563Z,30.15
2018-12-17T08:36:49.981Z,27.80
2018-12-17T08:39:17.414Z,25.45
2018-12-17T08:41:44.866Z,25.23
2018-12-17T08:44:12.308Z,33.83
2018-12-17T08:46:39.727Z,31.12
2018-12-17T08:49:07.186Z,25.27
2018-12-17T08:51:34.630Z,24.82
2018-12-17T08:54:02.102Z,32.00
2018-12-17T08:56:29.583Z,29.12
2018-12-17T08:58:57.116Z,34.83
2018-12-17T09:01:24.582Z,26.93
2018-12-17T09:03:52.042Z,27.42
2018-12-17T09:06:19.494Z,24.60
2018-12-17T09:08:47.618Z,20.50
2018-12-17T09:11:15.086Z,22.60
2018-12-17T09:13:42.537Z,23.62
2018-12-17T09:16:09.963Z,29.55
2018-12-17T09:18:37.482Z,22.35
2018-12-17T09:21:04.996Z,22.87
2018-12-17T09:23:32.554Z,19.30
2018-12-17T09:26:00.009Z,22.37
2018-12-17T09:28:27.447Z,22.37
2018-12-17T09:30:55.002Z,21.25
2018-12-17T09:33:22.494Z,17.73
2018-12-17T09:35:49.974Z,20.55
2018-12-17T09:38:17.417Z,23.32
2018-12-17T09:40:44.967Z,19.27
2018-12-17T09:43:12.409Z,18.85
2018-12-17T09:45:39.858Z,17.73
2018-12-17T09:48:07.322Z,16.27
2018-12-17T09:50:34.767Z,17.55
2018-12-17T09:53:02.293Z,19.23
2018-12-17T09:55:29.726Z,20.40
2018-12-17T09:57:57.211Z,15.03
2018-12-17T10:00:25.642Z,12.40
2018-12-17T10:02:53.387Z,14.80
2018-12-17T10:05:20.858Z,11.70
2018-12-17T10:07:48.277Z,11.30
2018-12-17T10:10:15.734Z,15.53
2018-12-17T10:12:43.283Z,13.18
2018-12-17T10:15:10.707Z,15.48
2018-12-17T10:17:38.135Z,10.58
2018-12-17T10:20:05.820Z,12.10
2018-12-17T10:22:33.863Z,14.98
2018-12-17T10:25:01.375Z,11.65
2018-12-17T10:27:28.779Z,17.15
2018-12-17T10:29:56.210Z,11.45
2018-12-17T10:32:23.653Z,11.35
2018-12-17T10:34:51.087Z,8.68
2018-12-17T10:37:18.526Z,11.83
2018-12-17T10:39:45.991Z,10.90
2018-12-17T10:42:13.436Z,12.45
2018-12-17T10:44:40.859Z,13.30
2018-12-17T10:47:08.288Z,8.10
2018-12-17T10:49:35.790Z,10.13
2018-12-17T10:52:03.273Z,13.38
2018-12-17T10:54:30.699Z,10.35
2018-12-17T10:56:58.126Z,12.13
2018-12-17T10:59:25.554Z,10.98
2018-12-17T11:01:54.908Z,15.20
2018-12-17T11:04:24.081Z,12.33
2018-12-17T11:06:51.515Z,12.00
2018-12-17T11:09:18.945Z,11.50
2018-12-17T11:11:46.425Z,12.23
2018-12-17T11:14:13.873Z,10.18
2018-12-17T11:16:41.335Z,6.25
2018-12-17T11:19:08.858Z,8.65
2018-12-17T11:21:36.306Z,11.73
2018-12-17T11:24:03.769Z,7.87
2018-12-17T11:26:31.266Z,10.93
2018-12-17T11:28:58.697Z,8.63
2018-12-17T11:31:26.230Z,7.28
2018-12-17T11:33:53.675Z,9.93
2018-12-17T11:36:21.110Z,11.65
2018-12-17T11:38:48.558Z,9.78
2018-12-17T11:41:15.995Z,11.80
2018-12-17T11:43:44.028Z,6.85
2018-12-17T11:46:11.821Z,14.90
2018-12-17T11:48:39.865Z,8.33
2018-12-17T11:51:07.290Z,9.80
2018-12-17T11:53:34.758Z,14.68
2018-12-17T11:56:02.238Z,10.60
2018-12-17T11:58:29.668Z,11.25
2018-12-17T12:00:57.830Z,14.20
2018-12-17T12:03:25.290Z,10.00
2018-12-17T12:05:52.727Z,14.05
2018-12-17T12:08:20.178Z,14.63
2018-12-17T12:10:47.617Z,12.00
2018-12-17T12:13:15.076Z,12.85
2018-12-17T12:15:42.493Z,11.03
2018-12-17T12:18:10.029Z,19.65
2018-12-17T12:20:37.452Z,11.95
2018-12-17T12:23:04.894Z,15.32
2018-12-17T12:25:32.397Z,15.80
2018-12-17T12:27:59.870Z,14.47
2018-12-17T12:30:27.296Z,11.38
2018-12-17T12:32:54.751Z,14.63
2018-12-17T12:35:22.217Z,11.28
2018-12-17T12:37:49.672Z,11.60
2018-12-17T12:40:17.126Z,12.80
2018-12-17T12:42:51.345Z,15.00
2018-12-17T12:45:14.077Z,12.23
2018-12-17T12:47:41.534Z,14.15
2018-12-17T12:50:09.299Z,15.75
2018-12-17T12:52:36.754Z,12.70
2018-12-17T12:55:04.418Z,14.70
2018-12-17T12:57:31.876Z,11.70
2018-12-17T12:59:59.297Z,13.70
2018-12-17T13:02:26.771Z,11.45
2018-12-17T13:04:54.334Z,10.58
2018-12-17T13:07:21.761Z,15.03
2018-12-17T13:09:49.198Z,12.18
2018-12-17T13:12:16.724Z,15.45
2018-12-17T13:14:44.182Z,17.67
2018-12-17T13:17:17.283Z,10.72
2018-12-17T13:19:44.780Z,11.93
2018-12-17T13:22:12.242Z,13.08
2018-12-17T13:24:39.694Z,13.38
2018-12-17T13:27:07.146Z,12.47
2018-12-17T13:29:34.599Z,14.90
2018-12-17T13:32:02.023Z,14.15
2018-12-17T13:34:29.474Z,10.98
2018-12-17T13:36:56.902Z,9.50
2018-12-17T13:39:24.533Z,13.60
2018-12-17T13:41:52.014Z,12.65
2018-12-17T13:44:19.449Z,10.03
2018-12-17T13:46:46.887Z,24.15
2018-12-17T13:49:14.367Z,9.68
2018-12-17T13:51:47.507Z,12.07
2018-12-17T13:54:15.083Z,10.50
2018-12-17T13:56:42.560Z,6.60
2018-12-17T13:59:10.666Z,10.03
2018-12-17T14:01:38.098Z,9.38
2018-12-17T14:04:05.531Z,9.93
2018-12-17T14:06:32.974Z,13.58
2018-12-17T14:09:00.406Z,11.03
2018-12-17T14:11:27.873Z,11.45
2018-12-17T14:13:55.384Z,3.77
2018-12-17T14:16:24.785Z,5.80
2018-12-17T14:18:58.074Z,5.17
2018-12-17T14:21:31.270Z,7.30
2018-12-17T14:23:58.710Z,10.03
2018-12-17T14:26:26.665Z,10.35
2018-12-17T14:28:54.178Z,8.75
2018-12-17T14:31:28.579Z,11.78
2018-12-17T14:33:51.031Z,10.25
2018-12-17T14:36:18.458Z,10.60
2018-12-17T14:38:45.913Z,9.45
2018-12-17T14:41:13.334Z,11.50
2018-12-17T14:43:41.042Z,12.95
2018-12-17T14:46:08.497Z,13.85
2018-12-17T14:48:35.950Z,10.80
2018-12-17T14:51:03.436Z,15.13
2018-12-17T14:53:30.870Z,13.38
2018-12-17T14:55:58.341Z,22.80
2018-12-17T14:58:25.761Z,9.13
2018-12-17T15:00:53.218Z,11.75
2018-12-17T15:03:20.642Z,3.33
2018-12-17T15:05:48.100Z,9.20
2018-12-17T15:08:15.541Z,14.70
2018-12-17T15:10:42.994Z,10.23
2018-12-17T15:13:10.447Z,10.15
2018-12-17T15:15:37.943Z,11.97
2018-12-17T15:18:05.382Z,10.53
2018-12-17T15:20:33.118Z,11.03
2018-12-17T15:23:00.550Z,10.90
2018-12-17T15:25:28.002Z,8.85
2018-12-17T15:27:55.426Z,10.78
2018-12-17T15:30:22.897Z,11.33
2018-12-17T15:32:50.878Z,7.90
2018-12-17T15:35:18.333Z,11.45
2018-12-17T15:37:45.755Z,9.48
2018-12-17T15:40:13.230Z,9.75
2018-12-17T15:42:41.185Z,11.48
2018-12-17T15:45:08.810Z,13.55
2018-12-17T15:47:37.015Z,8.80
2018-12-17T15:50:04.694Z,10.80
2018-12-17T15:52:32.113Z,9.35
2018-12-17T15:54:59.550Z,10.80
2018-12-17T15:57:26.970Z,9.10
2018-12-17T15:59:54.422Z,10.60
2018-12-17T16:02:21.900Z,10.25
2018-12-17T16:04:49.406Z,10.93
2018-12-17T16:07:16.845Z,12.10
2018-12-17T16:09:44.471Z,13.38
2018-12-17T16:12:11.934Z,8.30
2018-12-17T16:14:39.364Z,11.85
2018-12-17T16:17:06.789Z,12.43
2018-12-17T16:19:34.238Z,7.03
2018-12-17T16:22:01.720Z,17.77
2018-12-17T16:24:29.243Z,13.38
2018-12-17T16:26:56.696Z,12.45
2018-12-17T16:29:24.194Z,10.63
2018-12-17T16:31:57.330Z,8.73
2018-12-17T16:34:21.050Z,10.70
2018-12-17T16:36:48.625Z,12.68
2018-12-17T16:39:16.050Z,9.25
2018-12-17T16:41:43.485Z,16.30
2018-12-17T16:44:10.908Z,13.05
2018-12-17T16:46:38.386Z,14.87
2018-12-17T16:49:05.849Z,15.63
2018-12-17T16:51:33.314Z,13.68
2018-12-17T16:54:00.743Z,12.88
2018-12-17T16:56:28.174Z,17.62
2018-12-17T16:58:55.886Z,13.28
2018-12-17T17:01:23.510Z,12.30
2018-12-17T17:03:50.976Z,14.18
2018-12-17T17:06:18.499Z,12.73
2018-12-17T17:08:45.913Z,20.52
2018-12-17T17:11:13.387Z,17.17
2018-12-17T17:13:40.834Z,25.95
2018-12-17T17:16:08.302Z,16.25
2018-12-17T17:18:35.730Z,15.20
2018-12-17T17:21:03.251Z,22.65
2018-12-17T17:23:30.702Z,13.15
2018-12-17T17:25:58.147Z,8.18
2018-12-17T17:28:25.606Z,11.68
2018-12-17T17:30:53.037Z,15.63
2018-12-17T17:33:20.542Z,19.20
2018-12-17T17:35:47.966Z,16.25
2018-12-17T17:38:15.396Z,15.98
2018-12-17T17:40:43.273Z,14.43
2018-12-17T17:43:10.702Z,12.40
2018-12-17T17:45:38.127Z,17.57
2018-12-17T17:48:05.565Z,14.40
2018-12-17T17:50:32.981Z,11.63
2018-12-17T17:53:00.418Z,14.00
2018-12-17T17:55:27.863Z,15.53
2018-12-17T17:57:55.298Z,16.55
2018-12-17T18:00:22.739Z,13.48
2018-12-17T18:02:50.218Z,17.85
2018-12-17T18:05:17.643Z,15.78
2018-12-17T18:07:45.069Z,10.88
2018-12-17T18:10:12.494Z,14.10
2018-12-17T18:12:39.946Z,15.88
2018-12-17T18:15:07.516Z,13.30
2018-12-17T18:17:34.986Z,15.70
2018-12-17T18:20:02.434Z,17.45
2018-12-17T18:22:29.897Z,16.50
2018-12-17T18:24:57.362Z,19.65
2018-12-17T18:27:24.845Z,21.60
2018-12-17T18:29:52.380Z,18.48
2018-12-17T18:32:26.011Z,15.00
2018-12-17T18:34:49.374Z,14.53
2018-12-17T18:37:16.846Z,15.58
2018-12-17T18:39:44.310Z,24.23
2018-12-17T18:42:11.745Z,15.72
2018-12-17T18:44:39.226Z,18.25
2018-12-17T18:47:06.730Z,13.65
2018-12-17T18:49:34.291Z,19.02
2018-12-17T18:52:01.718Z,15.98
2018-12-17T18:54:29.199Z,19.95
2018-12-17T18:56:56.625Z,13.58
2018-12-17T18:59:24.070Z,16.57
2018-12-17T19:01:51.498Z,13.20
2018-12-17T19:04:19.014Z,19.32
2018-12-17T19:06:46.439Z,13.72
2018-12-17T19:09:13.894Z,12.50
2018-12-17T19:11:41.356Z,23.50
2018-12-17T19:14:08.801Z,14.80
2018-12-17T19:16:36.251Z,13.48
2018-12-17T19:19:03.730Z,13.68
2018-12-17T19:21:31.154Z,11.80
2018-12-17T19:23:58.607Z,17.48
2018-12-17T19:26:26.054Z,17.60
2018-12-17T19:28:53.537Z,28.30
2018-12-17T19:31:20.995Z,12.35
2018-12-17T19:33:48.441Z,14.25
2018-12-17T19:36:15.887Z,16.00
2018-12-17T19:38:43.384Z,15.70
2018-12-17T19:41:10.850Z,12.90
2018-12-17T19:43:38.306Z,11.10
2018-12-17T19:46:05.767Z,16.07
2018-12-17T19:48:36.354Z,11.90
2018-12-17T19:51:03.830Z,14.58
2018-12-17T19:53:31.291Z,17.65
2018-12-17T19:55:58.790Z,16.23
2018-12-17T19:58:26.250Z,11.97
2018-12-17T20:00:54.768Z,13.10
2018-12-17T20:03:22.349Z,13.98
2018-12-17T20:05:49.818Z,21.23
2018-12-17T20:08:17.244Z,15.50
2018-12-17T20:10:44.673Z,22.02
2018-12-17T20:13:12.105Z,15.70
2018-12-17T20:15:39.641Z,12.85
2018-12-17T20:18:07.078Z,13.93
2018-12-17T20:20:34.906Z,14.13
2018-12-17T20:23:03.199Z,14.45
2018-12-17T20:25:30.656Z,18.35
2018-12-17T20:27:58.073Z,12.47
2018-12-17T20:30:25.510Z,11.30
2018-12-17T20:32:53.724Z,15.23
2018-12-17T20:35:21.320Z,15.40
2018-12-17T20:37:48.758Z,17.23
2018-12-17T20:40:16.290Z,13.60
2018-12-17T20:42:44.267Z,13.68
2018-12-17T20:45:11.718Z,10.65
2018-12-17T20:47:39.218Z,13.75
2018-12-17T20:50:07.085Z,12.07
2018-12-17T20:52:34.531Z,8.43
2018-12-17T20:55:02.068Z,12.53
2018-12-17T20:57:29.498Z,11.55
2018-12-17T20:59:56.946Z,12.80
2018-12-17T21:02:24.390Z,12.07
2018-12-17T21:04:51.826Z,15.23
2018-12-17T21:07:19.246Z,12.20
2018-12-17T21:09:46.698Z,13.08
2018-12-17T21:12:14.150Z,16.00
2018-12-17T21:14:41.601Z,14.35
2018-12-17T21:17:09.025Z,12.55
2018-12-17T21:19:36.474Z,15.80
2018-12-17T21:22:07.742Z,17.60
2018-12-17T21:24:35.177Z,11.40
2018-12-17T21:27:02.630Z,15.63
2018-12-17T21:29:30.077Z,18.65
2018-12-17T21:34:31.386Z,15.60
2018-12-17T21:36:58.818Z,13.65
2018-12-17T21:39:26.231Z,9.00
2018-12-17T21:41:53.757Z,9.55
2018-12-17T21:44:21.178Z,13.45
2018-12-17T21:46:48.638Z,17.10
2018-12-17T21:49:16.058Z,12.05
2018-12-17T21:51:43.510Z,13.83
2018-12-17T21:54:10.950Z,14.65
2018-12-17T21:56:38.486Z,10.43
2018-12-17T21:59:05.926Z,14.45
2018-12-17T22:01:33.357Z,14.73
2018-12-17T22:04:00.846Z,10.13
2018-12-17T22:06:28.266Z,10.90
2018-12-17T22:08:55.758Z,10.23
2018-12-17T22:11:23.215Z,13.68
2018-12-17T22:13:50.654Z,15.08
2018-12-17T22:16:18.087Z,10.45
2018-12-17T22:18:45.527Z,8.85
2018-12-17T22:21:13.042Z,17.05
2018-12-17T22:23:40.467Z,15.75
2018-12-17T22:26:07.889Z,15.53
2018-12-17T22:28:35.418Z,11.73
2018-12-17T22:31:02.862Z,10.68
2018-12-17T22:33:30.294Z,13.83
2018-12-17T22:35:57.715Z,13.50
2018-12-17T22:38:25.146Z,17.35
2018-12-17T22:40:52.565Z,13.05
2018-12-17T22:43:19.993Z,15.78
2018-12-17T22:45:47.437Z,16.42
2018-12-17T22:48:14.869Z,14.05
2018-12-17T22:50:42.314Z,11.68
2018-12-17T22:53:09.771Z,14.45
2018-12-17T22:55:37.294Z,11.48
2018-12-17T22:58:04.739Z,8.90
2018-12-17T23:00:32.233Z,14.58
2018-12-17T23:03:00.169Z,12.90
2018-12-17T23:05:27.622Z,9.68
2018-12-17T23:07:55.043Z,13.18
2018-12-17T23:10:36.390Z,10.53
2018-12-17T23:13:15.887Z,12.90
2018-12-17T23:15:55.425Z,11.43
2018-12-17T23:18:22.541Z,11.35
2018-12-17T23:20:50.016Z,17.73
2018-12-17T23:23:17.680Z,13.35
2018-12-17T23:25:45.138Z,19.55
2018-12-17T23:28:12.598Z,19.48
2018-12-17T23:30:40.050Z,14.23
2018-12-17T23:33:07.473Z,18.48
2018-12-17T23:35:34.926Z,13.62
2018-12-17T23:38:02.427Z,14.87
2018-12-17T23:40:29.915Z,17.90
2018-12-17T23:42:57.357Z,13.85
2018-12-17T23:45:24.861Z,11.68
2018-12-17T23:47:52.297Z,13.78
2018-12-17T23:50:19.750Z,15.75
2018-12-17T23:52:47.198Z,19.12
2018-12-17T23:55:14.628Z,14.07
2018-12-17T23:57:42.154Z,15.85
